Pagrindinis puslapis
METAR-TAF:

METAR-TAF

Oro uostai :

Luangprabangas, Laosas

platuma: 19-53N, ilguma: 102-08E, Aukštis: 305 m

Dabartinis oras

Ataskaita buvo paskelbta 58 minutes, ne 04:00 UTC
Vėjas 2 kt iš Vakarų
Temperatūra 29°C
Drėgmė 74%
Slėgis 1012 hPa
Matomumas 10 km arba daugiau
Išsisklaidę debesys ne aukštis 1000 ft
Išsisklaidę debesys ne aukštis 6000 ft
Apsiniaukę ne aukštis 8000 ft

METAR: VLLB 310400Z 27002KT 9999 SCT010 SCT060 OVC080 29/24 Q1012 NOSIG

Laikas: 11:58 (04:58 UTC)

Prognozė

Ataskaita buvo paskelbta 5 valandos ir 58 minutes, ne 23:00 UTC
Prognozė galioja nuo 31 metu 00 UTC su 31 metu 24 UTC
Vėjas 6 kt iš Vakarų/Pietvakarių
Matomumas 10 km arba daugiau
Išsisklaidę debesys ne aukštis 1700 ft
Išsisklaidę debesys ne aukštis 6000 ft
Su prošvaistėmis ne aukštis 8000 ft

TAF: VLLB 302300Z 3100/3124 24006KT 9999 SCT017 SCT060 BKN080

Orai ataskaitas ir orų prognozės (METAR, TAF).

turimą stotys yra geltonos ir raudonos taškus žemėlapyje.

Perkelti pele per norėdami pamatyti stoties vardą.

Tada spustelėkite, norėdami matyti oro stebėjimo ir prognozės.

Norėdami pakeisti žemėlapį: spustelėkite ant žalios mygtukų su juodo kryžiaus žemyn,; žalią mygtuką su brūkšneliu, jei norite nutolinti; arba žalių rodyklių gretimoms žemėlapius.


METAR-TAF: